Station Historical Data
Daily Summary for September 26, 2017 Units:  English    Metric   Both
Next Day »
Daily Weekly Monthly Yearly Custom
  High: Low: Average:
Temperature: 80.9 °F 59.7 °F 68.6 °F
Dew Point: 41.9 °F 32.9 °F 36 °F
Humidity: 44% 20% 31%
Wind Speed: 25.0mph 0.0mph 2.8mph
Wind Gust: 34.0mph - -
Wind- - East
Pressure: 29.92 in 29.83 in -
Precipitation: 0.00 in    
Historical Graphs
 
 
Tabular Data for September 26, 2017
Time Temperature Dew Point Pressure Wind Wind Speed Wind Gust Humidity Rainfall Rate (Hourly) solar Conditions
00:03 61.3 °F 34.1 °F 29.90 in Calm     36% 0.00 in 0.00 W/m2
00:13 61.3 °F 34.8 °F 29.90 in Calm     37% 0.00 in 0.00 W/m2
00:19 61.2 °F 34.7 °F 29.90 in Calm     37% 0.00 in 0.00 W/m2
00:24 61.1 °F 34.7 °F 29.90 in Calm     37% 0.00 in 0.00 W/m2
00:29 61.0 °F 33.9 °F 29.90 in Calm   3.0 mph 36% 0.00 in 0.00 W/m2
00:34 60.8 °F 33.7 °F 29.90 in Calm     36% 0.00 in 0.00 W/m2
00:39 60.7 °F 33.6 °F 29.90 in Calm     36% 0.00 in 0.00 W/m2
00:44 60.7 °F 33.6 °F 29.90 in ENE 3.0 mph 5.0 mph 36% 0.00 in 0.00 W/m2
00:49 60.7 °F 33.6 °F 29.90 in Calm   3.0 mph 36% 0.00 in 0.00 W/m2
00:54 60.7 °F 32.9 °F 29.89 in Calm     35% 0.00 in 0.00 W/m2
00:59 60.7 °F 33.6 °F 29.90 in Calm   4.0 mph 36% 0.00 in 0.00 W/m2
01:04 60.8 °F 33.7 °F 29.90 in ENE 2.0 mph 4.0 mph 36% 0.00 in 0.00 W/m2
01:09 60.9 °F 33.8 °F 29.90 in Calm   1.0 mph 36% 0.00 in 0.00 W/m2
01:14 60.9 °F 33.8 °F 29.90 in ENE 2.0 mph 6.0 mph 36% 0.00 in 0.00 W/m2
01:19 61.0 °F 33.9 °F 29.90 in ENE 6.0 mph 6.0 mph 36% 0.00 in 0.00 W/m2
01:24 61.0 °F 33.9 °F 29.90 in Calm   7.0 mph 36% 0.00 in 0.00 W/m2
01:29 61.0 °F 33.9 °F 29.90 in Calm   3.0 mph 36% 0.00 in 0.00 W/m2
01:34 61.1 °F 34.0 °F 29.90 in Calm   3.0 mph 36% 0.00 in 0.00 W/m2
01:39 61.1 °F 34.7 °F 29.90 in Calm   1.0 mph 37% 0.00 in 0.00 W/m2
01:44 61.1 °F 34.0 °F 29.90 in ENE 4.0 mph 4.0 mph 36% 0.00 in 0.00 W/m2
01:49 61.1 °F 34.0 °F 29.90 in Calm   1.0 mph 36% 0.00 in 0.00 W/m2
01:54 61.1 °F 34.0 °F 29.90 in East 4.0 mph 4.0 mph 36% 0.00 in 0.00 W/m2
01:59 61.1 °F 34.0 °F 29.90 in Calm   6.0 mph 36% 0.00 in 0.00 W/m2
02:04 61.0 °F 33.9 °F 29.90 in Calm   5.0 mph 36% 0.00 in 0.00 W/m2
02:09 60.9 °F 33.8 °F 29.89 in Calm   5.0 mph 36% 0.00 in 0.00 W/m2
02:14 60.7 °F 34.3 °F 29.89 in Calm   7.0 mph 37% 0.00 in 0.00 W/m2
02:19 60.4 °F 34.0 °F 29.89 in Calm   4.0 mph 37% 0.00 in 0.00 W/m2
02:24 60.3 °F 34.6 °F 29.89 in Calm   6.0 mph 38% 0.00 in 0.00 W/m2
02:29 60.0 °F 34.3 °F 29.89 in Calm   8.0 mph 38% 0.00 in 0.00 W/m2
02:34 59.9 °F 34.2 °F 29.89 in Calm   7.0 mph 38% 0.00 in 0.00 W/m2
02:39 59.9 °F 34.9 °F 29.89 in Calm   8.0 mph 39% 0.00 in 0.00 W/m2
02:44 59.8 °F 34.8 °F 29.89 in East 4.0 mph 7.0 mph 39% 0.00 in 0.00 W/m2
02:49 59.7 °F 34.7 °F 29.89 in ENE 2.0 mph 10.0 mph 39% 0.00 in 0.00 W/m2
02:50 59.8 °F 34.8 °F 29.89 in ENE 4.0 mph 10.0 mph 39% 0.00 in 0.00 W/m2
02:55 59.7 °F 34.7 °F 29.89 in ENE 5.0 mph 11.0 mph 39% 0.00 in 0.00 W/m2
03:00 59.8 °F 34.8 °F 29.89 in ENE 6.0 mph 12.0 mph 39% 0.00 in 0.00 W/m2
03:05 59.9 °F 34.9 °F 29.88 in East 2.0 mph 11.0 mph 39% 0.00 in 0.00 W/m2
03:10 60.0 °F 35.0 °F 29.88 in East 2.0 mph 6.0 mph 39% 0.00 in 0.00 W/m2
03:15 60.1 °F 35.7 °F 29.89 in East 3.0 mph 7.0 mph 40% 0.00 in 0.00 W/m2
03:20 60.2 °F 35.8 °F 29.89 in East 5.0 mph 8.0 mph 40% 0.00 in 0.00 W/m2
03:25 60.2 °F 35.2 °F 29.88 in Calm   5.0 mph 39% 0.00 in 0.00 W/m2
03:30 60.3 °F 35.3 °F 29.88 in Calm   4.0 mph 39% 0.00 in 0.00 W/m2
03:35 60.3 °F 35.3 °F 29.88 in Calm   4.0 mph 39% 0.00 in 0.00 W/m2
03:40 60.4 °F 35.3 °F 29.88 in East 4.0 mph 6.0 mph 39% 0.00 in 0.00 W/m2
03:45 60.4 °F 35.3 °F 29.88 in Calm   5.0 mph 39% 0.00 in 0.00 W/m2
03:50 60.5 °F 35.4 °F 29.88 in Calm   5.0 mph 39% 0.00 in 0.00 W/m2
03:55 60.5 °F 35.4 °F 29.88 in Calm   6.0 mph 39% 0.00 in 0.00 W/m2
04:00 60.6 °F 35.5 °F 29.88 in ENE 2.0 mph 3.0 mph 39% 0.00 in 0.00 W/m2
04:05 60.6 °F 34.9 °F 29.88 in ENE 2.0 mph 5.0 mph 38% 0.00 in 0.00 W/m2
04:10 60.7 °F 35.0 °F 29.88 in Calm   5.0 mph 38% 0.00 in 0.00 W/m2
04:15 60.8 °F 35.1 °F 29.88 in ENE 2.0 mph 7.0 mph 38% 0.00 in 0.00 W/m2
04:20 60.8 °F 35.1 °F 29.88 in East 12.0 mph 12.0 mph 38% 0.00 in 0.00 W/m2
04:25 60.7 °F 35.0 °F 29.87 in Calm   11.0 mph 38% 0.00 in 0.00 W/m2
04:31 60.7 °F 35.0 °F 29.87 in Calm   4.0 mph 38% 0.00 in 0.00 W/m2
04:36 60.7 °F 35.0 °F 29.87 in Calm   11.0 mph 38% 0.00 in 0.00 W/m2
04:41 60.8 °F 35.1 °F 29.87 in ENE 5.0 mph 17.0 mph 38% 0.00 in 0.00 W/m2
04:45 60.9 °F 35.1 °F 29.87 in ENE 4.0 mph 27.0 mph 38% 0.00 in 0.00 W/m2
04:56 62.4 °F 34.4 °F 29.87 in NNE 1.0 mph 26.0 mph 35% 0.00 in 0.00 W/m2
05:01 63.1 °F 34.3 °F 29.87 in East 7.0 mph 17.0 mph 34% 0.00 in 0.00 W/m2
05:06 63.9 °F 33.5 °F 29.87 in East 6.0 mph 19.0 mph 32% 0.00 in 0.00 W/m2
05:11 64.5 °F 34.8 °F 29.87 in ENE 4.0 mph 19.0 mph 33% 0.00 in 0.00 W/m2
05:16 64.7 °F 34.2 °F 29.87 in Calm   21.0 mph 32% 0.00 in 0.00 W/m2
05:21 65.0 °F 34.5 °F 29.87 in ESE 7.0 mph 15.0 mph 32% 0.00 in 0.00 W/m2
05:26 64.9 °F 34.4 °F 29.87 in NE 11.0 mph 24.0 mph 32% 0.00 in 0.00 W/m2
05:31 64.9 °F 34.4 °F 29.87 in East 12.0 mph 14.0 mph 32% 0.00 in 0.00 W/m2
05:36 64.9 °F 34.4 °F 29.87 in ENE 8.0 mph 15.0 mph 32% 0.00 in 0.00 W/m2
05:41 64.8 °F 34.3 °F 29.87 in NE 4.0 mph 11.0 mph 32% 0.00 in 0.00 W/m2
05:46 64.7 °F 34.2 °F 29.87 in ENE 1.0 mph 2.0 mph 32% 0.00 in 0.00 W/m2
05:51 64.7 °F 34.2 °F 29.87 in East 2.0 mph 4.0 mph 32% 0.00 in 0.00 W/m2
05:56 64.9 °F 34.4 °F 29.88 in East 2.0 mph 8.0 mph 32% 0.00 in 0.00 W/m2
06:01 64.9 °F 34.4 °F 29.88 in East 6.0 mph 6.0 mph 32% 0.00 in 0.00 W/m2
06:06 64.8 °F 34.3 °F 29.88 in ESE 5.0 mph 7.0 mph 32% 0.00 in 0.00 W/m2
06:11 64.8 °F 34.3 °F 29.89 in East 2.0 mph 7.0 mph 32% 0.00 in 0.00 W/m2
06:16 64.7 °F 35.0 °F 29.89 in ENE 4.0 mph 5.0 mph 33% 0.00 in 0.00 W/m2
06:21 64.5 °F 34.8 °F 29.89 in ENE 6.0 mph 6.0 mph 33% 0.00 in 0.00 W/m2
06:26 64.4 °F 34.7 °F 29.89 in ENE 4.0 mph 6.0 mph 33% 0.00 in 0.00 W/m2
06:31 64.1 °F 35.2 °F 29.89 in ENE 2.0 mph 5.0 mph 34% 0.00 in 0.00 W/m2
06:36 63.7 °F 34.8 °F 29.90 in East 5.0 mph 5.0 mph 34% 0.00 in 0.00 W/m2
06:41 63.3 °F 34.5 °F 29.90 in ENE 3.0 mph 5.0 mph 34% 0.00 in 0.00 W/m2
06:46 63.0 °F 34.9 °F 29.90 in ENE 6.0 mph 7.0 mph 35% 0.00 in 0.00 W/m2
06:51 62.7 °F 35.4 °F 29.90 in East 6.0 mph 11.0 mph 36% 0.00 in 0.00 W/m2
06:56 62.5 °F 35.2 °F 29.90 in East 3.0 mph 5.0 mph 36% 0.00 in 5.00 W/m2
06:58 62.5 °F 35.2 °F 29.90 in East 4.0 mph 7.0 mph 36% 0.00 in 7.00 W/m2
07:03 62.4 °F 35.1 °F 29.90 in East 2.0 mph 5.0 mph 36% 0.00 in 9.00 W/m2
07:08 62.3 °F 35.0 °F 29.91 in Calm   7.0 mph 36% 0.00 in 12.00 W/m2
07:13 62.2 °F 34.9 °F 29.91 in East 2.0 mph 2.0 mph 36% 0.00 in 14.00 W/m2
07:18 62.2 °F 34.9 °F 29.91 in East 5.0 mph 5.0 mph 36% 0.00 in 18.00 W/m2
07:23 62.1 °F 34.8 °F 29.91 in Calm     36% 0.00 in 26.00 W/m2
07:28 62.0 °F 35.5 °F 29.91 in Calm   4.0 mph 37% 0.00 in 39.00 W/m2
07:33 62.0 °F 35.5 °F 29.91 in ESE 5.0 mph 5.0 mph 37% 0.00 in 51.00 W/m2
07:38 61.9 °F 36.0 °F 29.91 in Calm   5.0 mph 38% 0.00 in 67.00 W/m2
07:43 61.8 °F 36.0 °F 29.91 in Calm   5.0 mph 38% 0.00 in 84.00 W/m2
07:48 61.7 °F 35.9 °F 29.91 in ESE 8.0 mph 9.0 mph 38% 0.00 in 100.00 W/m2
07:53 61.7 °F 36.5 °F 29.91 in ESE 2.0 mph 11.0 mph 39% 0.00 in 120.00 W/m2
07:58 61.7 °F 36.5 °F 29.91 in Calm   7.0 mph 39% 0.00 in 139.00 W/m2
08:03 61.7 °F 37.2 °F 29.91 in Calm   7.0 mph 40% 0.00 in 158.00 W/m2
08:08 61.7 °F 37.2 °F 29.91 in Calm   4.0 mph 40% 0.00 in 178.00 W/m2
08:13 61.7 °F 37.2 °F 29.91 in Calm   1.0 mph 40% 0.00 in 200.00 W/m2
08:18 61.8 °F 37.2 °F 29.91 in Calm     40% 0.00 in 221.00 W/m2
08:23 62.0 °F 38.0 °F 29.91 in Calm     41% 0.00 in 243.00 W/m2
08:28 62.1 °F 38.1 °F 29.91 in Calm   4.0 mph 41% 0.00 in 262.00 W/m2
08:33 62.2 °F 38.2 °F 29.92 in Calm   1.0 mph 41% 0.00 in 283.00 W/m2
08:38 62.3 °F 38.9 °F 29.92 in Calm   1.0 mph 42% 0.00 in 302.00 W/m2
08:43 62.4 °F 39.0 °F 29.92 in East 2.0 mph 2.0 mph 42% 0.00 in 318.00 W/m2
08:48 62.5 °F 39.1 °F 29.91 in Calm     42% 0.00 in 336.00 W/m2
08:53 62.6 °F 39.8 °F 29.91 in Calm     43% 0.00 in 352.00 W/m2
08:58 62.8 °F 40.6 °F 29.91 in Calm     44% 0.00 in 367.00 W/m2
09:03 62.9 °F 40.7 °F 29.91 in Calm     44% 0.00 in 381.00 W/m2
09:04 62.9 °F 40.7 °F 29.91 in Calm     44% 0.00 in 383.00 W/m2
09:09 63.2 °F 40.3 °F 29.91 in Calm     43% 0.00 in 399.00 W/m2
09:14 63.5 °F 40.6 °F 29.91 in Calm     43% 0.00 in 415.00 W/m2
09:19 63.6 °F 40.7 °F 29.91 in Calm     43% 0.00 in 431.00 W/m2
09:24 63.9 °F 41.0 °F 29.91 in Calm     43% 0.00 in 446.00 W/m2
09:29 64.1 °F 40.6 °F 29.91 in Calm     42% 0.00 in 461.00 W/m2
09:34 64.6 °F 40.4 °F 29.91 in Calm     41% 0.00 in 476.00 W/m2
09:39 65.0 °F 40.1 °F 29.90 in Calm   2.0 mph 40% 0.00 in 487.00 W/m2
09:44 65.4 °F 41.1 °F 29.91 in Calm     41% 0.00 in 503.00 W/m2
09:49 65.6 °F 40.7 °F 29.90 in Calm     40% 0.00 in 517.00 W/m2
09:54 66.0 °F 41.0 °F 29.90 in East 2.0 mph 6.0 mph 40% 0.00 in 531.00 W/m2
09:59 66.4 °F 40.7 °F 29.90 in East 5.0 mph 10.0 mph 39% 0.00 in 543.00 W/m2
10:04 66.7 °F 41.0 °F 29.90 in ENE 12.0 mph 18.0 mph 39% 0.00 in 557.00 W/m2
10:09 67.0 °F 41.9 °F 29.90 in Calm     40% 0.00 in 568.00 W/m2
10:19 67.9 °F 40.7 °F 29.90 in ENE 8.0 mph 11.0 mph 37% 0.00 in 591.00 W/m2
10:24 68.4 °F 39.7 °F 29.90 in East 5.0 mph 9.0 mph 35% 0.00 in 598.00 W/m2
10:29 68.8 °F 39.3 °F 29.90 in Calm   7.0 mph 34% 0.00 in 610.00 W/m2
10:34 69.2 °F 38.9 °F 29.90 in Calm   11.0 mph 33% 0.00 in 624.00 W/m2
10:39 69.6 °F 40.0 °F 29.90 in ESE 7.0 mph 17.0 mph 34% 0.00 in 629.00 W/m2
10:44 70.0 °F 39.6 °F 29.90 in ESE 5.0 mph 9.0 mph 33% 0.00 in 638.00 W/m2
10:49 70.7 °F 38.6 °F 29.90 in ESE 5.0 mph 11.0 mph 31% 0.00 in 650.00 W/m2
10:54 71.2 °F 39.0 °F 29.90 in ESE 7.0 mph 12.0 mph 31% 0.00 in 661.00 W/m2
10:59 71.7 °F 39.5 °F 29.90 in Calm   14.0 mph 31% 0.00 in 670.00 W/m2
11:04 72.2 °F 38.2 °F 29.90 in Calm   15.0 mph 29% 0.00 in 677.00 W/m2
11:09 72.7 °F 39.5 °F 29.89 in ESE 8.0 mph 9.0 mph 30% 0.00 in 687.00 W/m2
11:14 73.3 °F 38.3 °F 29.89 in Calm   33.0 mph 28% 0.00 in 698.00 W/m2
11:19 73.8 °F 38.7 °F 29.89 in ENE 10.0 mph 28.0 mph 28% 0.00 in 705.00 W/m2
11:24 74.3 °F 37.2 °F 29.89 in SE 9.0 mph 33.0 mph 26% 0.00 in 705.00 W/m2
11:29 74.7 °F 37.6 °F 29.89 in ESE 9.0 mph 28.0 mph 26% 0.00 in 721.00 W/m2
11:34 75.1 °F 37.9 °F 29.89 in East 14.0 mph 22.0 mph 26% 0.00 in 728.00 W/m2
11:40 75.4 °F 38.2 °F 29.89 in ESE 6.0 mph 22.0 mph 26% 0.00 in 726.00 W/m2
11:45 75.8 °F 37.5 °F 29.89 in SE 12.0 mph 34.0 mph 25% 0.00 in 737.00 W/m2
11:50 76.0 °F 37.7 °F 29.88 in SE 23.0 mph 24.0 mph 25% 0.00 in 747.00 W/m2
11:55 76.3 °F 36.9 °F 29.88 in SE 15.0 mph 22.0 mph 24% 0.00 in 738.00 W/m2
12:00 76.7 °F 37.2 °F 29.88 in Calm   19.0 mph 24% 0.00 in 752.00 W/m2
12:05 76.6 °F 37.1 °F 29.88 in ENE 5.0 mph 17.0 mph 24% 0.00 in 754.00 W/m2
12:10 76.5 °F 37.1 °F 29.88 in ENE 1.0 mph 32.0 mph 24% 0.00 in 759.00 W/m2
12:15 76.6 °F 36.1 °F 29.88 in ENE 1.0 mph 26.0 mph 23% 0.00 in 763.00 W/m2
12:25 76.9 °F 36.3 °F 29.88 in Calm   27.0 mph 23% 0.00 in 768.00 W/m2
12:31 77.0 °F 36.4 °F 29.88 in ENE 2.0 mph 23.0 mph 23% 0.00 in 766.00 W/m2
12:36 77.2 °F 37.7 °F 29.88 in East 25.0 mph 29.0 mph 24% 0.00 in 773.00 W/m2
12:41 77.3 °F 36.7 °F 29.88 in NE 18.0 mph 22.0 mph 23% 0.00 in 779.00 W/m2
12:46 77.3 °F 36.7 °F 29.87 in Calm   25.0 mph 23% 0.00 in 775.00 W/m2
12:51 77.4 °F 35.6 °F 29.87 in ENE 19.0 mph 19.0 mph 22% 0.00 in 775.00 W/m2
12:56 77.4 °F 36.7 °F 29.87 in Calm     23% 0.00 in 775.00 W/m2
13:01 77.6 °F 36.9 °F 29.87 in ESE 8.0 mph 21.0 mph 23% 0.00 in 777.00 W/m2
13:06 77.9 °F 36.0 °F 29.86 in Calm   22.0 mph 22% 0.00 in 773.00 W/m2
13:11 78.2 °F 36.3 °F 29.87 in East 5.0 mph 19.0 mph 22% 0.00 in 772.00 W/m2
13:16 78.4 °F 36.5 °F 29.87 in Calm   29.0 mph 22% 0.00 in 772.00 W/m2
13:21 78.4 °F 36.5 °F 29.86 in Calm   25.0 mph 22% 0.00 in 768.00 W/m2
13:26 78.7 °F 36.7 °F 29.86 in East 12.0 mph 13.0 mph 22% 0.00 in 759.00 W/m2
13:31 79.0 °F 35.8 °F 29.86 in ENE 7.0 mph 7.0 mph 21% 0.00 in 761.00 W/m2
13:36 79.2 °F 35.9 °F 29.86 in ENE 18.0 mph 18.0 mph 21% 0.00 in 758.00 W/m2
13:41 79.5 °F 36.2 °F 29.86 in ESE 16.0 mph 23.0 mph 21% 0.00 in 749.00 W/m2
13:46 79.6 °F 36.3 °F 29.85 in SE 7.0 mph 18.0 mph 21% 0.00 in 745.00 W/m2
13:51 79.8 °F 36.4 °F 29.85 in SE 9.0 mph 25.0 mph 21% 0.00 in 742.00 W/m2
13:56 80.0 °F 36.6 °F 29.85 in Calm   28.0 mph 21% 0.00 in 742.00 W/m2
14:01 80.2 °F 36.8 °F 29.85 in ESE 9.0 mph 23.0 mph 21% 0.00 in 733.00 W/m2
14:06 80.5 °F 37.0 °F 29.85 in Calm   19.0 mph 21% 0.00 in 722.00 W/m2
14:11 80.7 °F 35.9 °F 29.85 in Calm   21.0 mph 20% 0.00 in 719.00 W/m2
14:16 80.9 °F 37.3 °F 29.85 in SSE 7.0 mph 16.0 mph 21% 0.00 in 715.00 W/m2
14:21 80.9 °F 36.1 °F 29.84 in Calm     20% 0.00 in 708.00 W/m2
14:26 80.9 °F 36.1 °F 29.84 in East 9.0 mph 10.0 mph 20% 0.00 in 712.00 W/m2
14:31 80.8 °F 36.0 °F 29.84 in East 11.0 mph 13.0 mph 20% 0.00 in 693.00 W/m2
14:36 80.7 °F 37.2 °F 29.84 in Calm     21% 0.00 in 679.00 W/m2
14:41 80.5 °F 35.8 °F 29.84 in East 7.0 mph 7.0 mph 20% 0.00 in 679.00 W/m2
14:46 80.3 °F 35.6 °F 29.84 in East 13.0 mph 14.0 mph 20% 0.00 in 671.00 W/m2
14:51 80.0 °F 35.4 °F 29.84 in ESE 1.0 mph 5.0 mph 20% 0.00 in 659.00 W/m2
14:56 80.0 °F 36.6 °F 29.84 in East 1.0 mph 7.0 mph 21% 0.00 in 652.00 W/m2
15:01 79.9 °F 36.5 °F 29.84 in Calm     21% 0.00 in 631.00 W/m2
15:06 79.8 °F 36.4 °F 29.84 in SE 23.0 mph 23.0 mph 21% 0.00 in 629.00 W/m2
15:11 79.8 °F 36.4 °F 29.84 in East 20.0 mph 20.0 mph 21% 0.00 in 617.00 W/m2
15:16 79.6 °F 36.3 °F 29.84 in Calm   2.0 mph 21% 0.00 in 608.00 W/m2
15:21 79.5 °F 36.2 °F 29.84 in Calm     21% 0.00 in 594.00 W/m2
15:26 79.4 °F 37.3 °F 29.84 in Calm   7.0 mph 22% 0.00 in 582.00 W/m2
15:31 79.3 °F 36.0 °F 29.84 in Calm   2.0 mph 21% 0.00 in 571.00 W/m2
15:36 79.2 °F 37.1 °F 29.84 in ESE 11.0 mph 11.0 mph 22% 0.00 in 561.00 W/m2
15:41 79.1 °F 35.8 °F 29.84 in Calm     21% 0.00 in 545.00 W/m2
15:46 79.1 °F 37.0 °F 29.84 in Calm     22% 0.00 in 531.00 W/m2
15:48 79.1 °F 37.0 °F 29.84 in ESE 1.0 mph 16.0 mph 22% 0.00 in 526.00 W/m2
15:53 79.0 °F 37.0 °F 29.84 in ESE 1.0 mph 6.0 mph 22% 0.00 in 513.00 W/m2
15:58 78.9 °F 36.9 °F 29.83 in ESE 6.0 mph 13.0 mph 22% 0.00 in 501.00 W/m2
16:03 78.8 °F 36.8 °F 29.84 in Calm   9.0 mph 22% 0.00 in 489.00 W/m2
16:08 78.8 °F 36.8 °F 29.84 in Calm   13.0 mph 22% 0.00 in 476.00 W/m2
16:13 78.7 °F 36.7 °F 29.83 in ESE 11.0 mph 15.0 mph 22% 0.00 in 459.00 W/m2
16:18 78.7 °F 36.7 °F 29.83 in SE 4.0 mph 13.0 mph 22% 0.00 in 445.00 W/m2
16:23 78.7 °F 35.5 °F 29.83 in Calm   9.0 mph 21% 0.00 in 431.00 W/m2
16:28 78.6 °F 35.4 °F 29.84 in SSE 1.0 mph 13.0 mph 21% 0.00 in 415.00 W/m2
16:33 78.6 °F 36.6 °F 29.83 in Calm   17.0 mph 22% 0.00 in 401.00 W/m2
16:38 78.5 °F 36.5 °F 29.84 in ESE 1.0 mph 17.0 mph 22% 0.00 in 388.00 W/m2
16:43 78.4 °F 36.5 °F 29.84 in Calm   22.0 mph 22% 0.00 in 371.00 W/m2
16:48 78.3 °F 36.4 °F 29.83 in Calm   14.0 mph 22% 0.00 in 353.00 W/m2
16:53 78.2 °F 36.3 °F 29.83 in Calm   9.0 mph 22% 0.00 in 338.00 W/m2
16:58 78.1 °F 36.2 °F 29.83 in Calm   17.0 mph 22% 0.00 in 323.00 W/m2
17:03 78.0 °F 37.2 °F 29.84 in SE 4.0 mph 12.0 mph 23% 0.00 in 308.00 W/m2
17:08 77.8 °F 37.1 °F 29.84 in ESE 2.0 mph 12.0 mph 23% 0.00 in 294.00 W/m2
17:13 77.7 °F 37.0 °F 29.84 in ESE 1.0 mph 14.0 mph 23% 0.00 in 274.00 W/m2
17:18 77.6 °F 36.9 °F 29.84 in SSE 2.0 mph 15.0 mph 23% 0.00 in 260.00 W/m2
17:23 77.5 °F 36.8 °F 29.84 in Calm   9.0 mph 23% 0.00 in 244.00 W/m2
17:28 77.4 °F 36.7 °F 29.84 in Calm   15.0 mph 23% 0.00 in 225.00 W/m2
17:33 77.2 °F 37.7 °F 29.84 in ESE 2.0 mph 11.0 mph 24% 0.00 in 209.00 W/m2
17:38 77.1 °F 36.5 °F 29.84 in Calm   12.0 mph 23% 0.00 in 193.00 W/m2
17:43 76.9 °F 36.3 °F 29.84 in ESE 6.0 mph 7.0 mph 23% 0.00 in 174.00 W/m2
17:48 76.7 °F 37.2 °F 29.84 in ESE 1.0 mph 11.0 mph 24% 0.00 in 158.00 W/m2
17:54 76.4 °F 37.0 °F 29.84 in Calm   8.0 mph 24% 0.00 in 135.00 W/m2
17:58 76.1 °F 36.7 °F 29.84 in Calm   9.0 mph 24% 0.00 in 118.00 W/m2
18:04 75.9 °F 36.5 °F 29.84 in SE 1.0 mph 7.0 mph 24% 0.00 in 95.00 W/m2
18:09 75.7 °F 36.4 °F 29.84 in SE 5.0 mph 12.0 mph 24% 0.00 in 76.00 W/m2
18:14 75.5 °F 37.2 °F 29.84 in Calm   6.0 mph 25% 0.00 in 60.00 W/m2
18:19 75.4 °F 37.2 °F 29.85 in East 7.0 mph 8.0 mph 25% 0.00 in 46.00 W/m2
18:24 75.1 °F 36.9 °F 29.85 in Calm   11.0 mph 25% 0.00 in 35.00 W/m2
18:29 74.9 °F 36.7 °F 29.85 in Calm   6.0 mph 25% 0.00 in 26.00 W/m2
18:34 74.7 °F 37.6 °F 29.85 in Calm   9.0 mph 26% 0.00 in 18.00 W/m2
18:39 74.4 °F 37.3 °F 29.85 in ESE 5.0 mph 6.0 mph 26% 0.00 in 12.00 W/m2
18:44 74.2 °F 37.1 °F 29.85 in Calm   5.0 mph 26% 0.00 in 11.00 W/m2
18:49 73.9 °F 36.9 °F 29.85 in ESE 1.0 mph 6.0 mph 26% 0.00 in 9.00 W/m2
18:54 73.6 °F 37.6 °F 29.85 in Calm   6.0 mph 27% 0.00 in 7.00 W/m2
18:59 73.2 °F 37.2 °F 29.86 in Calm   11.0 mph 27% 0.00 in 0.00 W/m2
19:00 73.2 °F 37.2 °F 29.85 in Calm   11.0 mph 27% 0.00 in 0.00 W/m2
19:05 72.8 °F 36.9 °F 29.86 in Calm     27% 0.00 in 0.00 W/m2
19:10 72.2 °F 36.4 °F 29.85 in Calm   6.0 mph 27% 0.00 in 0.00 W/m2
19:15 71.8 °F 37.0 °F 29.86 in Calm   5.0 mph 28% 0.00 in 0.00 W/m2
19:20 71.2 °F 36.5 °F 29.86 in East 1.0 mph 5.0 mph 28% 0.00 in 0.00 W/m2
19:25 70.6 °F 36.8 °F 29.86 in Calm   4.0 mph 29% 0.00 in 0.00 W/m2
19:30 70.1 °F 36.4 °F 29.86 in East 4.0 mph 5.0 mph 29% 0.00 in 0.00 W/m2
19:35 69.7 °F 36.0 °F 29.86 in East 3.0 mph 4.0 mph 29% 0.00 in 0.00 W/m2
19:40 69.4 °F 35.8 °F 29.86 in East 1.0 mph 5.0 mph 29% 0.00 in 0.00 W/m2
19:45 69.2 °F 35.6 °F 29.86 in East 3.0 mph 5.0 mph 29% 0.00 in 0.00 W/m2
19:50 69.0 °F 35.5 °F 29.86 in Calm   7.0 mph 29% 0.00 in 0.00 W/m2
19:55 68.8 °F 36.1 °F 29.86 in East 3.0 mph 5.0 mph 30% 0.00 in 0.00 W/m2
20:00 68.8 °F 35.3 °F 29.86 in East 4.0 mph 5.0 mph 29% 0.00 in 0.00 W/m2
20:05 68.7 °F 35.2 °F 29.87 in Calm   6.0 mph 29% 0.00 in 0.00 W/m2
20:10 68.6 °F 35.1 °F 29.87 in Calm   4.0 mph 29% 0.00 in 0.00 W/m2
20:15 68.6 °F 35.1 °F 29.87 in Calm   7.0 mph 29% 0.00 in 0.00 W/m2
20:18 68.6 °F 35.1 °F 29.87 in East 1.0 mph 3.0 mph 29% 0.00 in 0.00 W/m2
20:23 68.5 °F 35.0 °F 29.87 in Calm   4.0 mph 29% 0.00 in 0.00 W/m2
20:24 68.5 °F 35.0 °F 29.87 in Calm   4.0 mph 29% 0.00 in 0.00 W/m2
20:29 68.4 °F 34.0 °F 29.88 in Calm   5.0 mph 28% 0.00 in 0.00 W/m2
20:34 68.1 °F 34.7 °F 29.87 in ENE 5.0 mph 7.0 mph 29% 0.00 in 0.00 W/m2
20:39 67.8 °F 34.4 °F 29.87 in Calm   6.0 mph 29% 0.00 in 0.00 W/m2
20:44 67.6 °F 34.2 °F 29.87 in Calm   3.0 mph 29% 0.00 in 0.00 W/m2
20:49 67.5 °F 34.2 °F 29.87 in Calm   11.0 mph 29% 0.00 in 0.00 W/m2
20:54 67.4 °F 34.1 °F 29.88 in Calm     29% 0.00 in 0.00 W/m2
20:59 67.3 °F 33.1 °F 29.88 in Calm   2.0 mph 28% 0.00 in 0.00 W/m2
21:04 67.2 °F 33.0 °F 29.88 in Calm     28% 0.00 in 0.00 W/m2
21:09 67.2 °F 33.9 °F 29.88 in Calm   5.0 mph 29% 0.00 in 0.00 W/m2
21:14 67.1 °F 33.8 °F 29.88 in Calm     29% 0.00 in 0.00 W/m2
21:19 67.0 °F 33.7 °F 29.88 in Calm     29% 0.00 in 0.00 W/m2
21:24 66.9 °F 34.5 °F 29.88 in Calm     30% 0.00 in 0.00 W/m2
21:29 66.7 °F 33.5 °F 29.88 in Calm   1.0 mph 29% 0.00 in 0.00 W/m2
21:34 66.5 °F 34.1 °F 29.88 in Calm     30% 0.00 in 0.00 W/m2
21:39 66.1 °F 33.8 °F 29.88 in Calm     30% 0.00 in 0.00 W/m2
21:44 65.8 °F 34.3 °F 29.88 in East 3.0 mph 12.0 mph 31% 0.00 in 0.00 W/m2
21:49 65.6 °F 34.2 °F 29.88 in Calm   11.0 mph 31% 0.00 in 0.00 W/m2
21:54 65.5 °F 34.9 °F 29.88 in Calm   5.0 mph 32% 0.00 in 0.00 W/m2
21:59 65.4 °F 34.8 °F 29.88 in Calm   8.0 mph 32% 0.00 in 0.00 W/m2
22:04 65.3 °F 34.7 °F 29.88 in Calm     32% 0.00 in 0.00 W/m2
22:09 65.3 °F 34.7 °F 29.88 in NE 1.0 mph 10.0 mph 32% 0.00 in 0.00 W/m2
22:14 65.2 °F 34.6 °F 29.88 in ENE 2.0 mph 7.0 mph 32% 0.00 in 0.00 W/m2
22:19 65.2 °F 34.6 °F 29.88 in ENE 1.0 mph 4.0 mph 32% 0.00 in 0.00 W/m2
22:24 65.2 °F 34.6 °F 29.88 in Calm     32% 0.00 in 0.00 W/m2
22:29 65.2 °F 34.6 °F 29.88 in Calm     32% 0.00 in 0.00 W/m2
22:34 65.0 °F 34.5 °F 29.88 in ENE 1.0 mph 4.0 mph 32% 0.00 in 0.00 W/m2
22:39 64.8 °F 34.3 °F 29.88 in Calm   8.0 mph 32% 0.00 in 0.00 W/m2
22:44 64.7 °F 35.0 °F 29.88 in East 1.0 mph 9.0 mph 33% 0.00 in 0.00 W/m2
22:49 64.6 °F 34.9 °F 29.88 in East 5.0 mph 11.0 mph 33% 0.00 in 0.00 W/m2
22:54 64.4 °F 34.7 °F 29.87 in Calm   11.0 mph 33% 0.00 in 0.00 W/m2
22:59 64.4 °F 34.7 °F 29.87 in Calm   6.0 mph 33% 0.00 in 0.00 W/m2
23:04 64.3 °F 33.8 °F 29.87 in East 8.0 mph 12.0 mph 32% 0.00 in 0.00 W/m2
23:09 64.3 °F 34.6 °F 29.87 in Calm   19.0 mph 33% 0.00 in 0.00 W/m2
23:14 64.4 °F 33.9 °F 29.87 in East 6.0 mph 9.0 mph 32% 0.00 in 0.00 W/m2
23:19 64.5 °F 34.0 °F 29.87 in ESE 11.0 mph 18.0 mph 32% 0.00 in 0.00 W/m2
23:24 64.5 °F 34.0 °F 29.86 in Calm   11.0 mph 32% 0.00 in 0.00 W/m2
23:29 64.7 °F 33.4 °F 29.87 in Calm   13.0 mph 31% 0.00 in 0.00 W/m2
23:34 64.9 °F 33.6 °F 29.86 in East 1.0 mph 21.0 mph 31% 0.00 in 0.00 W/m2
23:40 65.2 °F 33.8 °F 29.86 in East 4.0 mph 16.0 mph 31% 0.00 in 0.00 W/m2
23:45 65.5 °F 33.3 °F 29.86 in ESE 6.0 mph 13.0 mph 30% 0.00 in 0.00 W/m2
23:50 65.8 °F 33.5 °F 29.86 in ESE 4.0 mph 21.0 mph 30% 0.00 in 0.00 W/m2
23:55 66.0 °F 33.7 °F 29.87 in SE 2.0 mph 18.0 mph 30% 0.00 in 0.00 W/m2
Foresthill Weather
 WU-history PHP script courtesy of   Juneau County Weather.
powered by Cumulus v1.9.3 (1059)
Ambient Weather VWS v14.00
Top Contact Website Map Copyright © 2007 - 2018 Foresthillweather.com Never base important decisions on this or any weather information obtained from the Internet